Terminal Aerodrome Forecast
Issued by NWS

Home | Current Version | Previous Version | Text Only | Print | Product List | Glossary On
Versions: 1 2 3 4 5 6 7 8 9 10 11 12 13 14 15 16 17 18 19 20 21
000
FTUS45 KABQ 202300
TAFLVS
TAF
KLVS 202336Z 2100/2124 08011G20KT P6SM SCT070
     FM210300 07009KT P6SM SCT050
     FM210800 04003KT 4SM BR BKN012
     FM211600 07009KT P6SM SCT040
     FM211900 11012G20KT P6SM VCSH BKN050
      TEMPO 2120/2124 4SM -TSRA OVC030CB=

USA.gov is the U.S. government's official web portal to all federal, state and local government web resources and services.